This is the latest recevied weather packets stored in our database for station/object KS5S. If no packets are shown the sender has not sent any weather packets the latest 10 day(s).
| Time | Temp. | Humidity | Pressure | Rain* | Wind** | Luminosity | Snow |
|---|---|---|---|---|---|---|---|
| 1778094446 | 14.44° C | 86% | 1012.3 hPa | 0 mm | - | 168 W/m² | - |
| 1778094143 | 13.89° C | 85% | 1012.4 hPa | 0 mm | - | 139 W/m² | - |
| 1778093840 | 13.89° C | 86% | 1012.6 hPa | 0 mm | - | 119 W/m² | - |
| 1778093536 | 13.89° C | 86% | 1012.5 hPa | 0 mm | - | 127 W/m² | - |
| 1778093234 | 13.89° C | 86% | 1012.7 hPa | 0 mm | - | 126 W/m² | - |
| 1778092931 | 13.89° C | 86% | 1012.8 hPa | 0 mm | - | 145 W/m² | - |
| 1778092628 | 13.89° C | 86% | 1012.8 hPa | 0 mm | - | 139 W/m² | - |
| 1778092323 | 13.89° C | 86% | 1012.7 hPa | 0 mm | - | 180 W/m² | - |
| 1778092021 | 13.89° C | 87% | 1012.8 hPa | 0 mm | - | 125 W/m² | - |
| 1778091718 | 13.89° C | 88% | 1013 hPa | 0 mm | - | 90 W/m² | - |
| 1778091415 | 13.89° C | 87% | 1013 hPa | 0 mm | - | 85 W/m² | - |
| 1778091113 | 13.89° C | 88% | 1013 hPa | 0 mm | - | 79 W/m² | - |
| 1778090810 | 13.89° C | 88% | 1012.8 hPa | 0 mm | - | 99 W/m² | - |
| 1778090506 | 13.33° C | 88% | 1012.6 hPa | 0 mm | - | 101 W/m² | - |
| 1778090202 | 13.89° C | 88% | 1012.7 hPa | 0 mm | - | 82 W/m² | - |
| 1778089899 | 13.89° C | 87% | 1012 hPa | 0 mm | - | 132 W/m² | - |
| 1778089592 | 13.89° C | 88% | 1011.1 hPa | 0 mm | - | 145 W/m² | - |
| 1778089288 | 13.89° C | 87% | 1010.8 hPa | 0 mm | - | 206 W/m² | - |
| 1778088986 | 13.89° C | 88% | 1010.7 hPa | 0 mm | - | 207 W/m² | - |
| 1778088683 | 13.89° C | 88% | 1010.5 hPa | 0 mm | - | 230 W/m² | - |
| 1778088380 | 13.89° C | 87% | 1011.1 hPa | 0 mm | - | 185 W/m² | - |
| 1778088076 | 13.89° C | 88% | 1011.3 hPa | 0 mm | - | 179 W/m² | - |
| 1778087773 | 13.89° C | 87% | 1011.2 hPa | 0 mm | - | 197 W/m² | - |
| 1778087471 | 13.89° C | 87% | 1011.4 hPa | 0 mm | - | 175 W/m² | - |
| 1778087167 | 13.89° C | 87% | 1011.5 hPa | 0 mm | - | 216 W/m² | - |
* Rain latest hour (hover to see other rain measurements)
** Current wind speed in m/s (hover to see current wind gust speed)